Accueil
METAR-TAF:

METAR-TAF

Aéroports :

Aéroport international Kempegowda

Bangalore, Inde

latitude: 13-11-56N, longitude: 077-42-20E, altitude: 915 m

Observation

Le bulletin a été fait il y a 34 minutes, à 05:00 UTC
Vent 8 kt de est/sud-est
Température 23°C
Humidité 78%
Pression 1020 hPa
Visibilité: 6000 m
Nuages épars à une hauteur de 1200 ft
Nuages épars à une hauteur de 8000 ft

METAR: VOBL 080500Z 11008KT 6000 SCT012 SCT080 23/19 Q1020 NOSIG

Heure: 11:04 (05:34 UTC)

Prévision

Le bulletin a été fait il y a 3 heures et 34 minutes, à 02:00 UTC
Prévision valable du 08 à 03 UTC au 08 à 12 UTC
Vent 10 kt de est
Visibilité: 3000 m
Nuages épars à une hauteur de 1000 ft
brume
Evoluant progressivement
du 08 à 05 UTC au 08 à 06 UTC
Visibilité: 6000 m
Nuages épars à une hauteur de 1200 ft
Nuages épars à une hauteur de 8000 ft

TAF: VOBL 080200Z 0803/0812 09010KT 3000 BR SCT010 BECMG 0805/0806 6000 SCT012 SCT080

Observations et prévisions météorologiques de plus de 4000 aéroports (messages METAR et TAF).

Les stations disponibles sont représentées par des disques jaunes et rouges sur la carte.

Passer la souris dessus pour voir le nom de la station.

Cliquer dessus pour voir les observations et prévisions météorologiques.

Pour changer de carte: cliquez sur les boutons verts avec une croix noire pour zoomer, sur le bouton vert avec un tiret pour effectuer un zoom arrière, ou sur les flèches vertes pour les cartes adjacentes.


METAR-TAF: